This is the latest recevied weather packets stored in our database for station/object I5EKX-13. If no packets are shown the sender has not sent any weather packets the latest 10 day(s).
| Time | Temp. | Humidity | Pressure | Rain* | Wind** | Luminosity | Snow |
|---|---|---|---|---|---|---|---|
| 1777325417 | 12.22° C | 81% | 1012.8 hPa | - | - | - | - |
| 1777324213 | 12.22° C | 81% | 1012.9 hPa | - | - | - | - |
| 1777323009 | 12.78° C | 80% | 1012.9 hPa | - | - | - | - |
| 1777321805 | 12.78° C | 80% | 1012.9 hPa | - | - | - | - |
| 1777320602 | 12.78° C | 81% | 1013 hPa | - | - | - | - |
| 1777319397 | 13.33° C | 80% | 1013 hPa | - | - | - | - |
| 1777318193 | 13.89° C | 81% | 1012.9 hPa | - | - | - | - |
| 1777316989 | 14.44° C | 81% | 1012.9 hPa | - | - | - | - |
| 1777315784 | 15° C | 79% | 1012.6 hPa | - | - | - | - |
| 1777314579 | 15.56° C | 78% | 1012.4 hPa | - | - | - | - |
| 1777312170 | 17.22° C | 74% | 1012.3 hPa | - | - | - | - |
| 1777310965 | 18.33° C | 70% | 1012.1 hPa | - | - | - | - |
| 1777309761 | 18.89° C | 68% | 1012.1 hPa | - | - | - | - |
| 1777308556 | 19.44° C | 64% | 1012.2 hPa | - | - | - | - |
| 1777307351 | 19.44° C | 65% | 1012.3 hPa | - | - | - | - |
| 1777306147 | 20° C | 65% | 1012.4 hPa | - | - | - | - |
| 1777304944 | 20° C | 66% | 1012.5 hPa | - | - | - | - |
| 1777303739 | 20.56° C | 63% | 1012.5 hPa | - | - | - | - |
| 1777302535 | 20.56° C | 63% | 1012.8 hPa | - | - | - | - |
| 1777301331 | 21.67° C | 55% | 1012.9 hPa | - | - | - | - |
| 1777298923 | 22.78° C | 51% | 1013.1 hPa | - | - | - | - |
| 1777297481 | 23.89° C | 49% | 1013.4 hPa | - | - | - | - |
| 1777294304 | 23.89° C | 50% | 1014 hPa | - | - | - | - |
| 1777293100 | 24.44° C | 55% | 1014.2 hPa | - | - | - | - |
| 1777291895 | 24.44° C | 51% | 1014.3 hPa | - | - | - | - |
* Rain since midnight (hover to see other rain measurements)
** Current wind speed in m/s (hover to see current wind gust speed)